sensor_id;sensor_type;location;lat;lon;timestamp;pressure;altitude;pressure_sealevel;temperature;humidity
79347;BME280;68815;48.810;44.482;2023-06-10T00:01:06;100590;;;18.5;47.9
79347;BME280;68815;48.810;44.482;2023-06-10T00:04:08;100587;;;18.6;47.1
79347;BME280;68815;48.810;44.482;2023-06-10T00:07:09;100586;;;18.6;47.6
79347;BME280;68815;48.810;44.482;2023-06-10T00:10:11;100583;;;18.5;47.6
79347;BME280;68815;48.810;44.482;2023-06-10T00:13:13;100583;;;18.4;47.9
79347;BME280;68815;48.810;44.482;2023-06-10T00:16:14;100580;;;18.3;48.1
79347;BME280;68815;48.810;44.482;2023-06-10T00:19:16;100588;;;18.3;48.3
79347;BME280;68815;48.810;44.482;2023-06-10T00:22:17;100588;;;18.2;48.4
79347;BME280;68815;48.810;44.482;2023-06-10T00:25:19;100595;;;18.2;48.7
79347;BME280;68815;48.810;44.482;2023-06-10T00:28:22;100596;;;18.1;49
79347;BME280;68815;48.810;44.482;2023-06-10T00:31:23;100596;;;18.1;48.8
79347;BME280;68815;48.810;44.482;2023-06-10T00:34:24;100595;;;18;49.1
79347;BME280;68815;48.810;44.482;2023-06-10T00:37:26;100586;;;18;49.4
79347;BME280;68815;48.810;44.482;2023-06-10T00:40:27;100593;;;18;50.5
79347;BME280;68815;48.810;44.482;2023-06-10T00:43:30;100589;;;18.1;48.5
79347;BME280;68815;48.810;44.482;2023-06-10T00:46:31;100589;;;18;49.7
79347;BME280;68815;48.810;44.482;2023-06-10T00:49:33;100592;;;17.9;49.7
79347;BME280;68815;48.810;44.482;2023-06-10T00:52:35;100591;;;17.9;49.3
79347;BME280;68815;48.810;44.482;2023-06-10T00:55:37;100589;;;17.8;49.5
79347;BME280;68815;48.810;44.482;2023-06-10T00:58:38;100588;;;17.9;49.6
79347;BME280;68815;48.810;44.482;2023-06-10T01:01:40;100583;;;17.7;49.9
79347;BME280;68815;48.810;44.482;2023-06-10T01:04:41;100584;;;17.8;50
79347;BME280;68815;48.810;44.482;2023-06-10T01:07:49;100580;;;17.8;50.5
79347;BME280;68815;48.810;44.482;2023-06-10T01:10:54;100572;;;17.8;50
79347;BME280;68815;48.810;44.482;2023-06-10T01:13:59;100573;;;17.8;50.3
79347;BME280;68815;48.810;44.482;2023-06-10T01:17:01;100581;;;17.8;50.8
79347;BME280;68815;48.810;44.482;2023-06-10T01:20:03;100579;;;17.9;51.4
79347;BME280;68815;48.810;44.482;2023-06-10T01:23:05;100574;;;17.7;51.7
79347;BME280;68815;48.810;44.482;2023-06-10T01:26:09;100571;;;17.7;51.3
79347;BME280;68815;48.810;44.482;2023-06-10T01:29:17;100573;;;17.9;50.5
79347;BME280;68815;48.810;44.482;2023-06-10T01:32:23;100580;;;18.4;50.9
79347;BME280;68815;48.810;44.482;2023-06-10T01:35:29;100584;;;18.8;49.1
79347;BME280;68815;48.810;44.482;2023-06-10T01:38:36;100575;;;18.7;49.2
79347;BME280;68815;48.810;44.482;2023-06-10T01:41:40;100580;;;18.4;49.5
79347;BME280;68815;48.810;44.482;2023-06-10T01:44:42;100573;;;18.5;49.7
79347;BME280;68815;48.810;44.482;2023-06-10T01:47:44;100573;;;18.7;49.5
79347;BME280;68815;48.810;44.482;2023-06-10T01:50:45;100579;;;18.8;49.4
79347;BME280;68815;48.810;44.482;2023-06-10T01:53:47;100579;;;18.9;49.6
79347;BME280;68815;48.810;44.482;2023-06-10T01:56:48;100578;;;19;49.4
79347;BME280;68815;48.810;44.482;2023-06-10T01:59:50;100575;;;19.2;49.4
79347;BME280;68815;48.810;44.482;2023-06-10T02:02:51;100578;;;19.4;49
79347;BME280;68815;48.810;44.482;2023-06-10T02:05:52;100575;;;19.6;48.4
79347;BME280;68815;48.810;44.482;2023-06-10T02:08:54;100576;;;19.5;48.2
79347;BME280;68815;48.810;44.482;2023-06-10T02:11:55;100578;;;19.8;47.8
79347;BME280;68815;48.810;44.482;2023-06-10T02:14:57;100581;;;20;48.3
79347;BME280;68815;48.810;44.482;2023-06-10T02:17:59;100573;;;20.1;47
79347;BME280;68815;48.810;44.482;2023-06-10T02:21:07;100574;;;20.1;48
79347;BME280;68815;48.810;44.482;2023-06-10T02:24:09;100573;;;20.3;48.3
79347;BME280;68815;48.810;44.482;2023-06-10T02:27:10;100574;;;20.5;46.4
79347;BME280;68815;48.810;44.482;2023-06-10T02:30:12;100572;;;20.7;46.7
79347;BME280;68815;48.810;44.482;2023-06-10T02:33:14;100571;;;20.9;46
79347;BME280;68815;48.810;44.482;2023-06-10T02:40:21;100578;;;20.2;47.8
79347;BME280;68815;48.810;44.482;2023-06-10T02:43:28;100578;;;20.3;49.4
79347;BME280;68815;48.810;44.482;2023-06-10T02:46:30;100575;;;20.4;49.1
79347;BME280;68815;48.810;44.482;2023-06-10T02:49:31;100569;;;20.7;48
79347;BME280;68815;48.810;44.482;2023-06-10T02:52:32;100572;;;21.2;47.4
79347;BME280;68815;48.810;44.482;2023-06-10T02:55:34;100566;;;21.6;46.6
79347;BME280;68815;48.810;44.482;2023-06-10T02:58:35;100559;;;21.7;45.3
79347;BME280;68815;48.810;44.482;2023-06-10T03:01:36;100559;;;21.8;46.6
79347;BME280;68815;48.810;44.482;2023-06-10T03:04:38;100561;;;22.2;45.2
79347;BME280;68815;48.810;44.482;2023-06-10T03:07:39;100561;;;22.2;44.5
79347;BME280;68815;48.810;44.482;2023-06-10T03:10:41;100557;;;22.1;45.5
79347;BME280;68815;48.810;44.482;2023-06-10T03:13:42;100551;;;22.7;45.2
79347;BME280;68815;48.810;44.482;2023-06-10T03:16:44;100548;;;23.3;44
79347;BME280;68815;48.810;44.482;2023-06-10T03:19:45;100554;;;23.5;43.9
79347;BME280;68815;48.810;44.482;2023-06-10T03:22:47;100554;;;23.6;44
79347;BME280;68815;48.810;44.482;2023-06-10T03:25:48;100552;;;23.7;44.1
79347;BME280;68815;48.810;44.482;2023-06-10T03:28:49;100554;;;24;42.9
79347;BME280;68815;48.810;44.482;2023-06-10T03:31:51;100553;;;24.1;41.7
79347;BME280;68815;48.810;44.482;2023-06-10T03:34:52;100556;;;24.3;42
79347;BME280;68815;48.810;44.482;2023-06-10T03:37:53;100562;;;24.5;40.1
79347;BME280;68815;48.810;44.482;2023-06-10T03:40:55;100562;;;24.2;40.5
79347;BME280;68815;48.810;44.482;2023-06-10T03:43:57;100566;;;24.4;40.3
79347;BME280;68815;48.810;44.482;2023-06-10T03:46:59;100569;;;24;39.4
79347;BME280;68815;48.810;44.482;2023-06-10T03:50:00;100567;;;23.6;40.2
79347;BME280;68815;48.810;44.482;2023-06-10T03:53:01;100566;;;23.7;40.7
79347;BME280;68815;48.810;44.482;2023-06-10T03:56:03;100567;;;23.9;40.7
79347;BME280;68815;48.810;44.482;2023-06-10T03:59:04;100567;;;24;40.8
79347;BME280;68815;48.810;44.482;2023-06-10T04:02:05;100567;;;23.9;40.9
79347;BME280;68815;48.810;44.482;2023-06-10T04:05:07;100572;;;23.8;41.3
79347;BME280;68815;48.810;44.482;2023-06-10T04:08:08;100562;;;24.1;41.1
79347;BME280;68815;48.810;44.482;2023-06-10T04:11:10;100572;;;24.4;40.5
79347;BME280;68815;48.810;44.482;2023-06-10T04:14:11;100571;;;25.6;38.3
79347;BME280;68815;48.810;44.482;2023-06-10T04:17:14;100569;;;25.7;37.6
79347;BME280;68815;48.810;44.482;2023-06-10T04:20:15;100568;;;26;37.9
79347;BME280;68815;48.810;44.482;2023-06-10T04:23:16;100564;;;26;36.6
79347;BME280;68815;48.810;44.482;2023-06-10T04:26:18;100561;;;26.7;36.1
79347;BME280;68815;48.810;44.482;2023-06-10T04:29:19;100562;;;26.9;35
79347;BME280;68815;48.810;44.482;2023-06-10T04:32:21;100553;;;27.1;33.9
79347;BME280;68815;48.810;44.482;2023-06-10T04:35:22;100560;;;26.9;33.1
79347;BME280;68815;48.810;44.482;2023-06-10T04:38:24;100552;;;27.1;32
79347;BME280;68815;48.810;44.482;2023-06-10T04:41:25;100555;;;27.8;30.8
79347;BME280;68815;48.810;44.482;2023-06-10T04:44:27;100554;;;27.6;31.3
79347;BME280;68815;48.810;44.482;2023-06-10T04:47:29;100550;;;27.4;30.9
79347;BME280;68815;48.810;44.482;2023-06-10T04:50:30;100549;;;27.1;32.1
79347;BME280;68815;48.810;44.482;2023-06-10T04:53:32;100550;;;27.1;32.1
79347;BME280;68815;48.810;44.482;2023-06-10T04:56:33;100549;;;26.8;31.7
79347;BME280;68815;48.810;44.482;2023-06-10T04:59:34;100546;;;27.4;34.1
79347;BME280;68815;48.810;44.482;2023-06-10T05:02:36;100543;;;27.4;35.5
79347;BME280;68815;48.810;44.482;2023-06-10T05:05:37;100541;;;27.6;34.7
79347;BME280;68815;48.810;44.482;2023-06-10T05:08:39;100541;;;28;31.3
79347;BME280;68815;48.810;44.482;2023-06-10T05:11:40;100543;;;28.6;29.6
79347;BME280;68815;48.810;44.482;2023-06-10T05:14:41;100544;;;29.2;29
79347;BME280;68815;48.810;44.482;2023-06-10T05:17:43;100541;;;29.6;28.6
79347;BME280;68815;48.810;44.482;2023-06-10T05:20:44;100542;;;30.4;26.9
79347;BME280;68815;48.810;44.482;2023-06-10T05:23:45;100540;;;31.1;25.2
79347;BME280;68815;48.810;44.482;2023-06-10T05:26:47;100536;;;30.3;26.9
79347;BME280;68815;48.810;44.482;2023-06-10T05:29:48;100539;;;30.9;26.9
79347;BME280;68815;48.810;44.482;2023-06-10T05:32:49;100535;;;30.9;26.1
79347;BME280;68815;48.810;44.482;2023-06-10T05:35:51;100533;;;31.1;25.2
79347;BME280;68815;48.810;44.482;2023-06-10T05:38:52;100526;;;31.7;25.1
79347;BME280;68815;48.810;44.482;2023-06-10T05:41:54;100532;;;31;24.4
79347;BME280;68815;48.810;44.482;2023-06-10T05:44:55;100528;;;31.1;25.3
79347;BME280;68815;48.810;44.482;2023-06-10T05:47:57;100523;;;32.1;24.2
79347;BME280;68815;48.810;44.482;2023-06-10T05:50:59;100523;;;30.9;26.6
79347;BME280;68815;48.810;44.482;2023-06-10T05:54:00;100522;;;30;27.7
79347;BME280;68815;48.810;44.482;2023-06-10T05:57:02;100516;;;28.9;27.3
79347;BME280;68815;48.810;44.482;2023-06-10T06:00:04;100512;;;28.9;27.8
79347;BME280;68815;48.810;44.482;2023-06-10T06:03:06;100508;;;28.4;28.3
79347;BME280;68815;48.810;44.482;2023-06-10T06:06:07;100513;;;28.4;26.7
79347;BME280;68815;48.810;44.482;2023-06-10T06:09:09;100507;;;28.2;27.1
79347;BME280;68815;48.810;44.482;2023-06-10T06:12:10;100508;;;28;27.8
79347;BME280;68815;48.810;44.482;2023-06-10T06:15:12;100498;;;28.5;27.7
79347;BME280;68815;48.810;44.482;2023-06-10T06:18:13;100500;;;28.8;27
79347;BME280;68815;48.810;44.482;2023-06-10T06:21:15;100499;;;28.9;26.4
79347;BME280;68815;48.810;44.482;2023-06-10T06:24:16;100502;;;28.4;26.4
79347;BME280;68815;48.810;44.482;2023-06-10T06:27:17;100503;;;28.3;24.8
79347;BME280;68815;48.810;44.482;2023-06-10T06:30:19;100494;;;28.2;26.3
79347;BME280;68815;48.810;44.482;2023-06-10T06:33:21;100515;;;28.5;25.7
79347;BME280;68815;48.810;44.482;2023-06-10T06:36:22;100501;;;28.3;24.3
79347;BME280;68815;48.810;44.482;2023-06-10T06:39:24;100493;;;28.9;24.4
79347;BME280;68815;48.810;44.482;2023-06-10T06:42:25;100489;;;29;24.7
79347;BME280;68815;48.810;44.482;2023-06-10T06:45:26;100491;;;29.3;24.2
79347;BME280;68815;48.810;44.482;2023-06-10T06:48:29;100485;;;29.8;23.4
79347;BME280;68815;48.810;44.482;2023-06-10T06:51:30;100486;;;29.5;23.9
79347;BME280;68815;48.810;44.482;2023-06-10T06:54:31;100474;;;30.4;23.7
79347;BME280;68815;48.810;44.482;2023-06-10T06:57:33;100475;;;30.6;23.3
79347;BME280;68815;48.810;44.482;2023-06-10T07:00:34;100473;;;29.7;22.9
79347;BME280;68815;48.810;44.482;2023-06-10T07:03:36;100469;;;29.5;23.8
79347;BME280;68815;48.810;44.482;2023-06-10T07:06:37;100467;;;30.3;23.7
79347;BME280;68815;48.810;44.482;2023-06-10T07:09:38;100472;;;29.5;22.8
79347;BME280;68815;48.810;44.482;2023-06-10T07:12:40;100467;;;29.6;21.8
79347;BME280;68815;48.810;44.482;2023-06-10T07:15:41;100462;;;29.3;23
79347;BME280;68815;48.810;44.482;2023-06-10T07:18:43;100462;;;29.3;23.7
79347;BME280;68815;48.810;44.482;2023-06-10T07:21:44;100469;;;29;23.2
79347;BME280;68815;48.810;44.482;2023-06-10T07:24:45;100468;;;28.6;23.2
79347;BME280;68815;48.810;44.482;2023-06-10T07:27:47;100450;;;29.1;23.7
79347;BME280;68815;48.810;44.482;2023-06-10T07:30:48;100454;;;29.5;22.7
79347;BME280;68815;48.810;44.482;2023-06-10T07:33:50;100461;;;28.9;22.7
79347;BME280;68815;48.810;44.482;2023-06-10T07:36:51;100452;;;29.2;24.2
79347;BME280;68815;48.810;44.482;2023-06-10T07:39:52;100452;;;28.5;23.7
79347;BME280;68815;48.810;44.482;2023-06-10T07:42:55;100458;;;28.3;24.7
79347;BME280;68815;48.810;44.482;2023-06-10T07:45:56;100454;;;28.3;22.4
79347;BME280;68815;48.810;44.482;2023-06-10T07:48:58;100453;;;28.3;22.5
79347;BME280;68815;48.810;44.482;2023-06-10T07:52:00;100447;;;28.4;22.9
79347;BME280;68815;48.810;44.482;2023-06-10T07:55:01;100449;;;28.3;22.4
79347;BME280;68815;48.810;44.482;2023-06-10T07:58:03;100442;;;28.3;21.8
79347;BME280;68815;48.810;44.482;2023-06-10T08:01:04;100449;;;28.3;21.5
79347;BME280;68815;48.810;44.482;2023-06-10T08:04:06;100443;;;27.6;23.3
79347;BME280;68815;48.810;44.482;2023-06-10T08:07:07;100442;;;27.9;21.7
79347;BME280;68815;48.810;44.482;2023-06-10T08:10:09;100435;;;28.2;22.5
79347;BME280;68815;48.810;44.482;2023-06-10T08:13:11;100437;;;28.5;21.6
79347;BME280;68815;48.810;44.482;2023-06-10T08:16:12;100432;;;28.5;21.2
79347;BME280;68815;48.810;44.482;2023-06-10T08:19:14;100444;;;28.4;22
79347;BME280;68815;48.810;44.482;2023-06-10T08:22:15;100431;;;28.3;22.2
79347;BME280;68815;48.810;44.482;2023-06-10T08:25:17;100429;;;28.4;22.1
79347;BME280;68815;48.810;44.482;2023-06-10T08:28:18;100426;;;28.3;21.9
79347;BME280;68815;48.810;44.482;2023-06-10T08:31:19;100429;;;28.4;21.9
79347;BME280;68815;48.810;44.482;2023-06-10T08:34:21;100427;;;28.5;21.8
79347;BME280;68815;48.810;44.482;2023-06-10T08:37:23;100426;;;28.5;22.4
79347;BME280;68815;48.810;44.482;2023-06-10T08:40:25;100429;;;28.2;22.8
79347;BME280;68815;48.810;44.482;2023-06-10T08:43:32;100419;;;28;22.9
79347;BME280;68815;48.810;44.482;2023-06-10T08:46:36;100411;;;28.1;23.4
79347;BME280;68815;48.810;44.482;2023-06-10T08:49:38;100408;;;28;23.4
79347;BME280;68815;48.810;44.482;2023-06-10T08:52:43;100413;;;28.3;22.8
79347;BME280;68815;48.810;44.482;2023-06-10T08:55:50;100417;;;28.2;21.6
79347;BME280;68815;48.810;44.482;2023-06-10T08:58:52;100407;;;28.4;20.7
79347;BME280;68815;48.810;44.482;2023-06-10T09:01:54;100402;;;28.5;21.4
79347;BME280;68815;48.810;44.482;2023-06-10T09:04:56;100407;;;28.3;21.2
79347;BME280;68815;48.810;44.482;2023-06-10T09:07:59;100401;;;28.1;21.5
79347;BME280;68815;48.810;44.482;2023-06-10T09:11:01;100402;;;28;22.4
79347;BME280;68815;48.810;44.482;2023-06-10T09:14:03;100398;;;28.3;20.9
79347;BME280;68815;48.810;44.482;2023-06-10T09:17:05;100401;;;28.1;20.9
79347;BME280;68815;48.810;44.482;2023-06-10T09:20:07;100396;;;28.1;21.7
79347;BME280;68815;48.810;44.482;2023-06-10T09:23:09;100391;;;28;22.7
79347;BME280;68815;48.810;44.482;2023-06-10T09:26:11;100387;;;28.3;22.6
79347;BME280;68815;48.810;44.482;2023-06-10T09:29:12;100380;;;28.3;22.1
79347;BME280;68815;48.810;44.482;2023-06-10T09:32:13;100377;;;28.4;22.4
79347;BME280;68815;48.810;44.482;2023-06-10T09:35:15;100389;;;28.4;23
79347;BME280;68815;48.810;44.482;2023-06-10T09:38:20;100377;;;28.6;23.2
79347;BME280;68815;48.810;44.482;2023-06-10T09:41:31;100382;;;28.4;23.4
79347;BME280;68815;48.810;44.482;2023-06-10T09:44:34;100379;;;28.3;22.3
79347;BME280;68815;48.810;44.482;2023-06-10T09:47:36;100372;;;28.3;22.7
79347;BME280;68815;48.810;44.482;2023-06-10T09:50:42;100361;;;28.2;22.1
79347;BME280;68815;48.810;44.482;2023-06-10T09:53:47;100366;;;28.4;22
79347;BME280;68815;48.810;44.482;2023-06-10T09:56:51;100353;;;28.4;22.3
79347;BME280;68815;48.810;44.482;2023-06-10T09:59:53;100346;;;28.4;22.2
79347;BME280;68815;48.810;44.482;2023-06-10T10:02:54;100349;;;28.6;23
79347;BME280;68815;48.810;44.482;2023-06-10T10:05:58;100351;;;28.4;22.2
79347;BME280;68815;48.810;44.482;2023-06-10T10:08:59;100353;;;27.8;23.5
79347;BME280;68815;48.810;44.482;2023-06-10T10:12:02;100355;;;28.1;22.5
79347;BME280;68815;48.810;44.482;2023-06-10T10:15:05;100340;;;28.2;23.1
79347;BME280;68815;48.810;44.482;2023-06-10T10:18:09;100340;;;28.5;22.6
79347;BME280;68815;48.810;44.482;2023-06-10T10:21:13;100340;;;28.3;22
79347;BME280;68815;48.810;44.482;2023-06-10T10:24:18;100347;;;27.8;23.4
79347;BME280;68815;48.810;44.482;2023-06-10T10:27:25;100338;;;28;23.2
79347;BME280;68815;48.810;44.482;2023-06-10T10:30:30;100342;;;28;22.8
79347;BME280;68815;48.810;44.482;2023-06-10T10:33:36;100336;;;27.9;22.6
79347;BME280;68815;48.810;44.482;2023-06-10T10:36:42;100330;;;27.8;22.4
79347;BME280;68815;48.810;44.482;2023-06-10T10:39:44;100334;;;28.3;22.1
79347;BME280;68815;48.810;44.482;2023-06-10T10:42:47;100329;;;28;22.6
79347;BME280;68815;48.810;44.482;2023-06-10T10:45:58;100325;;;28.4;21.7
79347;BME280;68815;48.810;44.482;2023-06-10T10:49:01;100326;;;28.4;21.2
79347;BME280;68815;48.810;44.482;2023-06-10T10:52:03;100324;;;28.3;21.4
79347;BME280;68815;48.810;44.482;2023-06-10T10:55:12;100323;;;28.3;21.3
79347;BME280;68815;48.810;44.482;2023-06-10T10:58:14;100317;;;28.3;21.3
79347;BME280;68815;48.810;44.482;2023-06-10T11:01:15;100314;;;28.4;21.2
79347;BME280;68815;48.810;44.482;2023-06-10T11:04:18;100314;;;28.7;21
79347;BME280;68815;48.810;44.482;2023-06-10T11:07:20;100301;;;28.4;21
79347;BME280;68815;48.810;44.482;2023-06-10T11:10:29;100314;;;28.4;21.2
79347;BME280;68815;48.810;44.482;2023-06-10T11:13:31;100310;;;28.5;20.5
79347;BME280;68815;48.810;44.482;2023-06-10T11:16:38;100311;;;28.5;20.4
79347;BME280;68815;48.810;44.482;2023-06-10T11:19:44;100297;;;28.3;21.3
79347;BME280;68815;48.810;44.482;2023-06-10T11:22:59;100308;;;28.3;21
79347;BME280;68815;48.810;44.482;2023-06-10T11:26:11;100295;;;28.1;21
79347;BME280;68815;48.810;44.482;2023-06-10T11:29:14;100297;;;28.3;20.2
79347;BME280;68815;48.810;44.482;2023-06-10T11:32:17;100291;;;28.3;20.9
79347;BME280;68815;48.810;44.482;2023-06-10T11:35:19;100292;;;28.5;20.5
79347;BME280;68815;48.810;44.482;2023-06-10T11:38:20;100311;;;28.4;19.5
79347;BME280;68815;48.810;44.482;2023-06-10T11:41:23;100288;;;28.3;21
79347;BME280;68815;48.810;44.482;2023-06-10T11:44:27;100280;;;27.9;21.1
79347;BME280;68815;48.810;44.482;2023-06-10T11:47:29;100284;;;28;20.5
79347;BME280;68815;48.810;44.482;2023-06-10T11:50:31;100291;;;28.2;20.3
79347;BME280;68815;48.810;44.482;2023-06-10T11:53:33;100289;;;28.3;18.2
79347;BME280;68815;48.810;44.482;2023-06-10T11:56:35;100285;;;28.3;18.4
79347;BME280;68815;48.810;44.482;2023-06-10T11:59:37;100279;;;28.5;19.3
79347;BME280;68815;48.810;44.482;2023-06-10T12:02:39;100280;;;28.4;19.3
79347;BME280;68815;48.810;44.482;2023-06-10T12:05:40;100275;;;28.1;20.4
79347;BME280;68815;48.810;44.482;2023-06-10T12:08:43;100268;;;28;21.1
79347;BME280;68815;48.810;44.482;2023-06-10T12:11:45;100251;;;28.4;21.4
79347;BME280;68815;48.810;44.482;2023-06-10T12:14:52;100263;;;28.3;19.6
79347;BME280;68815;48.810;44.482;2023-06-10T12:17:56;100254;;;28;19.9
79347;BME280;68815;48.810;44.482;2023-06-10T12:20:57;100252;;;28.1;20.1
79347;BME280;68815;48.810;44.482;2023-06-10T12:24:00;100252;;;28.4;18.6
79347;BME280;68815;48.810;44.482;2023-06-10T12:27:02;100246;;;28.3;18.1
79347;BME280;68815;48.810;44.482;2023-06-10T12:30:05;100241;;;28.3;18.4
79347;BME280;68815;48.810;44.482;2023-06-10T12:33:15;100247;;;28.3;19.3
79347;BME280;68815;48.810;44.482;2023-06-10T12:36:17;100238;;;28.2;20.4
79347;BME280;68815;48.810;44.482;2023-06-10T12:39:19;100236;;;28.3;20.9
79347;BME280;68815;48.810;44.482;2023-06-10T12:42:22;100247;;;28.1;21
79347;BME280;68815;48.810;44.482;2023-06-10T12:45:27;100238;;;28.2;21.2
79347;BME280;68815;48.810;44.482;2023-06-10T12:48:28;100236;;;28.3;21.2
79347;BME280;68815;48.810;44.482;2023-06-10T12:51:30;100235;;;28.1;21.6
79347;BME280;68815;48.810;44.482;2023-06-10T12:54:31;100232;;;28.2;21.6
79347;BME280;68815;48.810;44.482;2023-06-10T12:57:33;100242;;;28.2;21.3
79347;BME280;68815;48.810;44.482;2023-06-10T13:00:35;100234;;;28.4;21.6
79347;BME280;68815;48.810;44.482;2023-06-10T13:03:37;100232;;;28.5;21.3
79347;BME280;68815;48.810;44.482;2023-06-10T13:06:39;100226;;;28.4;22
79347;BME280;68815;48.810;44.482;2023-06-10T13:09:40;100223;;;28.5;22.3
79347;BME280;68815;48.810;44.482;2023-06-10T13:12:42;100229;;;28.4;21.8
79347;BME280;68815;48.810;44.482;2023-06-10T13:15:43;100226;;;28.4;21.9
79347;BME280;68815;48.810;44.482;2023-06-10T13:18:44;100221;;;28.5;22.4
79347;BME280;68815;48.810;44.482;2023-06-10T13:21:46;100225;;;28.5;21.9
79347;BME280;68815;48.810;44.482;2023-06-10T13:24:47;100217;;;28.5;22.8
79347;BME280;68815;48.810;44.482;2023-06-10T13:27:49;100223;;;28.3;23.4
79347;BME280;68815;48.810;44.482;2023-06-10T13:30:50;100216;;;28.4;22.9
79347;BME280;68815;48.810;44.482;2023-06-10T13:33:51;100210;;;28.3;22.9
79347;BME280;68815;48.810;44.482;2023-06-10T13:36:53;100203;;;28.5;23.5
79347;BME280;68815;48.810;44.482;2023-06-10T13:39:55;100208;;;28.5;23.4
79347;BME280;68815;48.810;44.482;2023-06-10T13:42:56;100202;;;28.3;23.8
79347;BME280;68815;48.810;44.482;2023-06-10T13:45:58;100205;;;28.4;23
79347;BME280;68815;48.810;44.482;2023-06-10T13:48:59;100190;;;28.4;23.2
79347;BME280;68815;48.810;44.482;2023-06-10T13:52:00;100191;;;28.5;23.2
79347;BME280;68815;48.810;44.482;2023-06-10T13:55:02;100190;;;28.5;23.7
79347;BME280;68815;48.810;44.482;2023-06-10T13:58:05;100185;;;28.5;23.9
79347;BME280;68815;48.810;44.482;2023-06-10T14:01:07;100186;;;28.5;23.6
79347;BME280;68815;48.810;44.482;2023-06-10T14:04:08;100183;;;28.5;23.5
79347;BME280;68815;48.810;44.482;2023-06-10T14:07:09;100177;;;28.4;23
79347;BME280;68815;48.810;44.482;2023-06-10T14:10:11;100176;;;28.4;23
79347;BME280;68815;48.810;44.482;2023-06-10T14:13:13;100167;;;28.5;23
79347;BME280;68815;48.810;44.482;2023-06-10T14:16:14;100168;;;28.4;23.6
79347;BME280;68815;48.810;44.482;2023-06-10T14:19:16;100170;;;28.5;23.2
79347;BME280;68815;48.810;44.482;2023-06-10T14:22:17;100164;;;28.5;23.6
79347;BME280;68815;48.810;44.482;2023-06-10T14:25:18;100159;;;28.5;23.7
79347;BME280;68815;48.810;44.482;2023-06-10T14:28:21;100163;;;28.4;22.9
79347;BME280;68815;48.810;44.482;2023-06-10T14:31:23;100158;;;28.3;22.9
79347;BME280;68815;48.810;44.482;2023-06-10T14:34:24;100156;;;28.3;23.1
79347;BME280;68815;48.810;44.482;2023-06-10T14:37:26;100152;;;28.3;23.4
79347;BME280;68815;48.810;44.482;2023-06-10T14:40:27;100146;;;28.3;23.2
79347;BME280;68815;48.810;44.482;2023-06-10T14:43:29;100150;;;28.3;23.3
79347;BME280;68815;48.810;44.482;2023-06-10T14:46:30;100150;;;28.3;23.4
79347;BME280;68815;48.810;44.482;2023-06-10T14:49:32;100148;;;28.3;23.3
79347;BME280;68815;48.810;44.482;2023-06-10T14:52:33;100145;;;28.2;23.3
79347;BME280;68815;48.810;44.482;2023-06-10T14:55:35;100146;;;28.2;23.3
79347;BME280;68815;48.810;44.482;2023-06-10T14:58:36;100140;;;28.2;23.7
79347;BME280;68815;48.810;44.482;2023-06-10T15:01:37;100139;;;28.2;23.6
79347;BME280;68815;48.810;44.482;2023-06-10T15:04:39;100141;;;28.1;23.8
79347;BME280;68815;48.810;44.482;2023-06-10T15:07:40;100133;;;28.1;24
79347;BME280;68815;48.810;44.482;2023-06-10T15:10:42;100136;;;28.1;24
79347;BME280;68815;48.810;44.482;2023-06-10T15:13:43;100133;;;28;24
79347;BME280;68815;48.810;44.482;2023-06-10T15:16:45;100131;;;28;24.4
79347;BME280;68815;48.810;44.482;2023-06-10T15:19:46;100123;;;28;24.7
79347;BME280;68815;48.810;44.482;2023-06-10T15:22:47;100128;;;28;24.8
79347;BME280;68815;48.810;44.482;2023-06-10T15:25:49;100123;;;27.9;25
79347;BME280;68815;48.810;44.482;2023-06-10T15:28:50;100121;;;27.9;25.1
79347;BME280;68815;48.810;44.482;2023-06-10T15:31:52;100126;;;27.9;25.2
79347;BME280;68815;48.810;44.482;2023-06-10T15:34:53;100123;;;27.8;25.2
79347;BME280;68815;48.810;44.482;2023-06-10T15:37:55;100122;;;27.8;25.6
79347;BME280;68815;48.810;44.482;2023-06-10T15:40:56;100119;;;27.7;25.8
79347;BME280;68815;48.810;44.482;2023-06-10T15:43:58;100117;;;27.7;26
79347;BME280;68815;48.810;44.482;2023-06-10T15:47:00;100114;;;27.7;26
79347;BME280;68815;48.810;44.482;2023-06-10T15:50:01;100121;;;27.6;26.2
79347;BME280;68815;48.810;44.482;2023-06-10T15:53:02;100116;;;27.6;26.3
79347;BME280;68815;48.810;44.482;2023-06-10T15:56:04;100114;;;27.6;26.5
79347;BME280;68815;48.810;44.482;2023-06-10T15:59:05;100112;;;27.5;26.6
79347;BME280;68815;48.810;44.482;2023-06-10T16:02:07;100112;;;27.5;26.6
79347;BME280;68815;48.810;44.482;2023-06-10T16:05:08;100114;;;27.4;26.6
79347;BME280;68815;48.810;44.482;2023-06-10T16:08:09;100111;;;27.4;26.8
79347;BME280;68815;48.810;44.482;2023-06-10T16:11:11;100108;;;27.4;26.9
79347;BME280;68815;48.810;44.482;2023-06-10T16:14:12;100113;;;27.3;26.9
79347;BME280;68815;48.810;44.482;2023-06-10T16:17:13;100112;;;27.2;27.3
79347;BME280;68815;48.810;44.482;2023-06-10T16:20:15;100110;;;27.2;27.2
79347;BME280;68815;48.810;44.482;2023-06-10T16:23:16;100114;;;27.2;27.3
79347;BME280;68815;48.810;44.482;2023-06-10T16:26:18;100116;;;27.1;27.2
79347;BME280;68815;48.810;44.482;2023-06-10T16:29:19;100116;;;27.1;27.5
79347;BME280;68815;48.810;44.482;2023-06-10T16:32:21;100117;;;27.1;27.5
79347;BME280;68815;48.810;44.482;2023-06-10T16:35:22;100122;;;27;27.7
79347;BME280;68815;48.810;44.482;2023-06-10T16:38:24;100123;;;27;27.9
79347;BME280;68815;48.810;44.482;2023-06-10T16:41:26;100127;;;26.9;28.2
79347;BME280;68815;48.810;44.482;2023-06-10T16:44:28;100126;;;26.9;28.2
79347;BME280;68815;48.810;44.482;2023-06-10T16:47:29;100130;;;26.8;28
79347;BME280;68815;48.810;44.482;2023-06-10T16:50:30;100136;;;26.8;28.2
79347;BME280;68815;48.810;44.482;2023-06-10T16:53:32;100138;;;26.7;28.1